createdAt,value
2016-02-23T00:00:59.969Z,984.24
2016-02-23T00:01:59.972Z,984.24
2016-02-23T00:02:59.975Z,984.22
2016-02-23T00:03:59.977Z,984.26
2016-02-23T00:04:59.972Z,984.23
2016-02-23T00:05:59.975Z,984.29
2016-02-23T00:06:59.978Z,984.3
2016-02-23T00:07:59.980Z,984.26
2016-02-23T00:08:59.984Z,984.33
2016-02-23T00:09:59.986Z,984.32
2016-02-23T00:10:59.972Z,984.31
2016-02-23T00:11:59.992Z,984.29
2016-02-23T00:12:59.994Z,984.33
2016-02-23T00:13:59.997Z,984.3
2016-02-23T00:14:59.983Z,984.36
2016-02-23T00:16:00.002Z,984.31
2016-02-23T00:16:59.989Z,984.23
2016-02-23T00:17:59.991Z,984.3
2016-02-23T00:19:00.010Z,984.25
2016-02-23T00:19:59.997Z,984.25
2016-02-23T00:21:00.000Z,984.27
2016-02-23T00:21:59.998Z,984.28
2016-02-23T00:22:59.975Z,984.26
2016-02-23T00:23:59.981Z,984.29
2016-02-23T00:24:59.972Z,984.26
2016-02-23T00:25:59.949Z,984.23
2016-02-23T00:26:59.943Z,984.26
2016-02-23T00:27:59.941Z,984.24
2016-02-23T00:28:59.940Z,984.25
2016-02-23T00:29:59.939Z,984.21
2016-02-23T00:30:59.938Z,984.2
2016-02-23T00:31:59.937Z,984.2
2016-02-23T00:32:59.938Z,984.19
2016-02-23T00:33:59.940Z,984.22
2016-02-23T00:34:59.942Z,984.3
2016-02-23T00:35:59.943Z,984.28
2016-02-23T00:36:59.944Z,984.21
2016-02-23T00:37:59.946Z,984.2
2016-02-23T00:38:59.948Z,984.26
2016-02-23T00:39:59.935Z,984.28
2016-02-23T00:40:59.952Z,984.26
2016-02-23T00:41:59.954Z,984.25
2016-02-23T00:42:59.948Z,984.28
2016-02-23T00:43:59.951Z,984.23
2016-02-23T00:44:59.953Z,984.28
2016-02-23T00:45:59.957Z,984.23
2016-02-23T00:46:59.943Z,984.22
2016-02-23T00:47:59.945Z,984.25
2016-02-23T00:48:59.949Z,984.22
2016-02-23T00:49:59.951Z,984.2
2016-02-23T00:50:59.953Z,984.17
2016-02-23T00:51:59.956Z,984.25
2016-02-23T00:52:59.959Z,984.2
2016-02-23T00:53:59.962Z,984.23
2016-02-23T00:54:59.965Z,984.18
2016-02-23T00:55:59.967Z,984.15
2016-02-23T00:56:59.970Z,984.17
2016-02-23T00:57:59.973Z,984.08
2016-02-23T00:58:59.960Z,984.1
2016-02-23T00:59:59.963Z,984.05
2016-02-23T01:00:59.966Z,984.05
2016-02-23T01:01:59.968Z,984.05
2016-02-23T01:02:59.971Z,984.03
2016-02-23T01:03:59.974Z,984.1
2016-02-23T01:04:59.976Z,983.97
2016-02-23T01:05:59.979Z,984.01
2016-02-23T01:06:59.982Z,984.02
2016-02-23T01:07:59.984Z,983.99
2016-02-23T01:08:59.987Z,983.96
2016-02-23T01:09:59.990Z,984
2016-02-23T01:10:59.992Z,983.97
2016-02-23T01:11:59.996Z,983.99
2016-02-23T01:12:59.998Z,984.03
2016-02-23T01:14:00.000Z,983.96
2016-02-23T01:15:00.003Z,983.94
2016-02-23T01:16:00.021Z,983.89
2016-02-23T01:16:59.993Z,983.85
2016-02-23T01:17:59.995Z,983.86
2016-02-23T01:18:59.998Z,983.84
2016-02-23T01:20:00.001Z,983.81
2016-02-23T01:21:00.004Z,983.76
2016-02-23T01:22:00.022Z,983.84
2016-02-23T01:23:00.009Z,983.81
2016-02-23T01:24:00.011Z,983.78
2016-02-23T01:25:00.015Z,983.77
2016-02-23T01:26:00.017Z,983.74
2016-02-23T01:27:00.019Z,983.73
2016-02-23T01:28:00.022Z,983.76
2016-02-23T01:29:00.025Z,983.73
2016-02-23T01:30:00.028Z,983.75
2016-02-23T01:31:00.015Z,983.73
2016-02-23T01:32:00.033Z,983.67
2016-02-23T01:33:00.021Z,983.73
2016-02-23T01:34:00.039Z,983.79
2016-02-23T01:35:00.026Z,983.63
2016-02-23T01:36:00.028Z,983.69
2016-02-23T01:37:00.032Z,983.73
2016-02-23T01:38:00.049Z,983.69
2016-02-23T01:39:00.037Z,983.76
2016-02-23T01:40:00.040Z,983.7
2016-02-23T01:41:00.042Z,983.66
2016-02-23T01:42:00.045Z,983.71
2016-02-23T01:43:00.048Z,983.69
2016-02-23T01:44:00.050Z,983.74
2016-02-23T01:45:00.053Z,983.65
2016-02-23T01:46:00.056Z,983.69
2016-02-23T01:47:00.042Z,983.62
2016-02-23T01:48:00.045Z,983.66
2016-02-23T01:49:00.064Z,983.61
2016-02-23T01:50:00.066Z,983.55
2016-02-23T01:51:00.115Z,983.59
2016-02-23T01:52:00.118Z,983.55
2016-02-23T01:53:00.074Z,983.51
2016-02-23T01:54:00.061Z,983.53
2016-02-23T01:55:00.064Z,983.58
2016-02-23T01:56:00.066Z,983.5
2016-02-23T01:57:00.070Z,983.54
2016-02-23T01:58:00.072Z,983.5
2016-02-23T01:59:00.074Z,983.47
2016-02-23T02:00:00.078Z,983.46
2016-02-23T02:01:00.080Z,983.51
2016-02-23T02:02:00.082Z,983.51
2016-02-23T02:03:00.085Z,983.48
2016-02-23T02:04:00.088Z,983.39
2016-02-23T02:05:00.107Z,983.38
2016-02-23T02:06:00.078Z,983.39
2016-02-23T02:07:00.080Z,983.39
2016-02-23T02:08:00.083Z,983.42
2016-02-23T02:09:00.086Z,983.32
2016-02-23T02:10:00.088Z,983.41
2016-02-23T02:11:00.090Z,983.41
2016-02-23T02:12:00.094Z,983.4
2016-02-23T02:13:00.096Z,983.38
2016-02-23T02:14:00.115Z,983.38
2016-02-23T02:15:00.102Z,983.36
2016-02-23T02:16:00.104Z,983.39
2016-02-23T02:17:00.107Z,983.36
2016-02-23T02:18:00.110Z,983.35
2016-02-23T02:19:00.112Z,983.34
2016-02-23T02:20:00.115Z,983.37
2016-02-23T02:21:00.103Z,983.27
2016-02-23T02:22:00.106Z,983.28
2016-02-23T02:23:00.108Z,983.33
2016-02-23T02:24:00.111Z,983.33
2016-02-23T02:25:00.129Z,983.28
2016-02-23T02:26:00.116Z,983.25
2016-02-23T02:27:00.119Z,983.2
2016-02-23T02:28:00.122Z,983.27
2016-02-23T02:29:00.124Z,983.23
2016-02-23T02:30:00.127Z,983.28
2016-02-23T02:31:00.135Z,983.27
2016-02-23T02:32:00.121Z,983.23
2016-02-23T02:33:00.140Z,983.23
2016-02-23T02:34:00.143Z,983.18
2016-02-23T02:35:00.129Z,983.22
2016-02-23T02:36:00.132Z,983.2
2016-02-23T02:37:00.151Z,983.2
2016-02-23T02:38:00.153Z,983.08
2016-02-23T02:39:00.141Z,983.13
2016-02-23T02:40:00.143Z,983.15
2016-02-23T02:41:00.145Z,983.13
2016-02-23T02:42:00.149Z,983.16
2016-02-23T02:43:00.151Z,983.08
2016-02-23T02:44:00.153Z,983.12
2016-02-23T02:45:00.156Z,983.08
2016-02-23T02:46:00.159Z,983.06
2016-02-23T02:47:00.161Z,983.08
2016-02-23T02:48:00.165Z,983.11
2016-02-23T02:49:00.167Z,983.16
2016-02-23T02:50:00.169Z,983.13
2016-02-23T02:51:00.157Z,983.09
2016-02-23T02:52:00.159Z,983.05
2016-02-23T02:53:00.161Z,983.11
2016-02-23T02:54:00.165Z,983.08
2016-02-23T02:55:00.167Z,983.1
2016-02-23T02:56:00.170Z,983.1
2016-02-23T02:57:00.173Z,983.14
2016-02-23T02:58:00.175Z,983.11
2016-02-23T02:59:00.178Z,983.07
2016-02-23T03:00:00.181Z,983.05
2016-02-23T03:01:00.183Z,983.03
2016-02-23T03:02:00.186Z,983
2016-02-23T03:03:00.189Z,983.07
2016-02-23T03:04:00.192Z,983.03
2016-02-23T03:05:00.194Z,983.07
2016-02-23T03:06:00.197Z,983.05
2016-02-23T03:07:00.200Z,983.03
2016-02-23T03:08:00.202Z,983.04
2016-02-23T03:09:00.205Z,983.03
2016-02-23T03:10:00.207Z,982.99
2016-02-23T03:11:00.210Z,983.05
2016-02-23T03:12:00.212Z,983.05
2016-02-23T03:13:00.216Z,982.99
2016-02-23T03:14:00.203Z,982.91
2016-02-23T03:15:00.221Z,982.96
2016-02-23T03:16:00.209Z,982.95
2016-02-23T03:17:00.211Z,983
2016-02-23T03:18:00.245Z,982.94
2016-02-23T03:19:00.217Z,982.93
2016-02-23T03:20:00.219Z,982.94
2016-02-23T03:21:00.222Z,982.85
2016-02-23T03:22:00.225Z,982.96
2016-02-23T03:23:00.227Z,982.92
2016-02-23T03:24:00.246Z,982.92
2016-02-23T03:25:00.233Z,982.87
2016-02-23T03:26:00.235Z,982.91
2016-02-23T03:27:00.239Z,982.92
2016-02-23T03:28:00.241Z,982.87
2016-02-23T03:29:00.244Z,982.86
2016-02-23T03:30:00.230Z,982.93
2016-02-23T03:31:00.249Z,982.93
2016-02-23T03:32:00.235Z,982.92
2016-02-23T03:33:00.255Z,982.91
2016-02-23T03:34:00.241Z,982.91
2016-02-23T03:35:00.243Z,982.89
2016-02-23T03:36:00.247Z,982.86
2016-02-23T03:37:00.249Z,982.89
2016-02-23T03:38:00.252Z,982.88
2016-02-23T03:39:00.254Z,982.88
2016-02-23T03:40:00.257Z,982.85
2016-02-23T03:41:00.260Z,982.93
2016-02-23T03:42:00.263Z,982.9
2016-02-23T03:43:00.265Z,982.9
2016-02-23T03:44:00.268Z,982.89
2016-02-23T03:45:00.270Z,982.87
2016-02-23T03:46:00.274Z,982.91
2016-02-23T03:47:00.276Z,982.91
2016-02-23T03:48:00.278Z,982.95
2016-02-23T03:49:00.282Z,982.94
2016-02-23T03:50:00.284Z,982.96
2016-02-23T03:51:00.271Z,982.93
2016-02-23T03:52:00.290Z,982.92
2016-02-23T03:53:00.276Z,982.9
2016-02-23T03:54:00.295Z,982.9
2016-02-23T03:55:00.282Z,982.92
2016-02-23T03:56:00.284Z,982.89
2016-02-23T03:57:00.286Z,982.96
2016-02-23T03:58:00.290Z,982.92
2016-02-23T03:59:00.308Z,982.93
2016-02-23T04:00:00.295Z,982.95
2016-02-23T04:01:00.298Z,982.97
2016-02-23T04:02:00.300Z,982.93
2016-02-23T04:03:00.303Z,982.91
2016-02-23T04:04:00.306Z,982.91
2016-02-23T04:05:00.308Z,982.97
2016-02-23T04:06:00.311Z,982.94
2016-02-23T04:07:00.314Z,982.94
2016-02-23T04:08:00.316Z,982.9
2016-02-23T04:09:00.319Z,982.92
2016-02-23T04:10:00.322Z,982.95
2016-02-23T04:11:00.325Z,982.98
2016-02-23T04:12:00.327Z,982.94
2016-02-23T04:13:00.330Z,982.95
2016-02-23T04:14:00.333Z,982.93
2016-02-23T04:15:00.320Z,982.96
2016-02-23T04:16:00.338Z,982.92
2016-02-23T04:17:00.326Z,983
2016-02-23T04:18:00.328Z,982.95
2016-02-23T04:19:00.331Z,982.94
2016-02-23T04:20:00.334Z,982.95
2016-02-23T04:21:00.336Z,983.03
2016-02-23T04:22:00.339Z,982.95
2016-02-23T04:23:00.342Z,982.9
2016-02-23T04:24:00.359Z,982.94
2016-02-23T04:25:00.347Z,982.91
2016-02-23T04:26:00.350Z,982.95
2016-02-23T04:27:00.367Z,982.96
2016-02-23T04:28:00.371Z,982.91
2016-02-23T04:29:00.358Z,982.94
2016-02-23T04:30:00.375Z,983
2016-02-23T04:31:00.364Z,982.98
2016-02-23T04:32:00.381Z,982.9
2016-02-23T04:33:00.369Z,982.92
2016-02-23T04:34:00.372Z,982.92
2016-02-23T04:35:00.374Z,982.87
2016-02-23T04:36:00.377Z,982.9
2016-02-23T04:37:00.364Z,982.88
2016-02-23T04:38:00.382Z,982.87
2016-02-23T04:39:00.384Z,982.85
2016-02-23T04:40:00.371Z,982.9
2016-02-23T04:41:00.374Z,982.84
2016-02-23T04:42:00.377Z,982.86
2016-02-23T04:43:00.379Z,982.82
2016-02-23T04:44:00.382Z,982.87
2016-02-23T04:45:00.385Z,982.87
2016-02-23T04:46:00.388Z,982.89
2016-02-23T04:47:00.391Z,982.88
2016-02-23T04:48:00.393Z,982.86
2016-02-23T04:49:00.395Z,982.8
2016-02-23T04:50:00.399Z,982.83
2016-02-23T04:51:00.386Z,982.86
2016-02-23T04:52:00.388Z,982.85
2016-02-23T04:53:00.392Z,982.84
2016-02-23T04:54:00.394Z,982.86
2016-02-23T04:55:00.397Z,982.82
2016-02-23T04:56:00.415Z,982.79
2016-02-23T04:57:00.402Z,982.83
2016-02-23T04:58:00.405Z,982.79
2016-02-23T04:59:00.408Z,982.82
2016-02-23T05:00:00.410Z,982.76
2016-02-23T05:01:00.397Z,982.78
2016-02-23T05:02:00.399Z,982.8
2016-02-23T05:03:00.403Z,982.79
2016-02-23T05:04:00.405Z,982.79
2016-02-23T05:05:00.408Z,982.81
2016-02-23T05:06:00.410Z,982.85
2016-02-23T05:07:00.413Z,982.75
2016-02-23T05:08:00.416Z,982.77
2016-02-23T05:09:00.419Z,982.88
2016-02-23T05:10:00.421Z,982.82
2016-02-23T05:11:00.423Z,982.84
2016-02-23T05:12:00.411Z,982.81
2016-02-23T05:13:00.413Z,982.78
2016-02-23T05:14:00.416Z,982.83
2016-02-23T05:15:00.419Z,982.78
2016-02-23T05:16:00.421Z,982.77
2016-02-23T05:17:00.424Z,982.75
2016-02-23T05:18:00.427Z,982.76
2016-02-23T05:19:00.429Z,982.75
2016-02-23T05:20:00.432Z,982.74
2016-02-23T05:21:00.435Z,982.73
2016-02-23T05:22:00.437Z,982.75
2016-02-23T05:23:00.440Z,982.73
2016-02-23T05:24:00.428Z,982.76
2016-02-23T05:25:00.431Z,982.71
2016-02-23T05:26:00.433Z,982.72
2016-02-23T05:27:13.186Z,982.72
2016-02-23T05:28:00.469Z,982.71
2016-02-23T05:29:00.441Z,982.72
2016-02-23T05:30:00.444Z,982.71
2016-02-23T05:31:00.447Z,982.74
2016-02-23T05:32:00.449Z,982.7
2016-02-23T05:33:00.452Z,982.69
2016-02-23T05:34:00.455Z,982.71
2016-02-23T05:35:00.441Z,982.63
2016-02-23T05:36:00.444Z,982.73
2016-02-23T05:37:00.478Z,982.71
2016-02-23T05:38:00.450Z,982.72
2016-02-23T05:39:00.452Z,982.71
2016-02-23T05:40:00.471Z,982.71
2016-02-23T05:41:00.457Z,982.75
2016-02-23T05:42:00.461Z,982.73
2016-02-23T05:43:00.479Z,982.75
2016-02-23T05:44:00.466Z,982.77
2016-02-23T05:45:00.468Z,982.76
2016-02-23T05:46:00.471Z,982.84
2016-02-23T05:47:00.474Z,982.84
2016-02-23T05:48:00.476Z,982.83
2016-02-23T05:49:00.479Z,982.85
2016-02-23T05:50:13.216Z,982.82
2016-02-23T05:51:00.484Z,982.86
2016-02-23T05:52:00.488Z,982.86
2016-02-23T05:53:00.490Z,982.88
2016-02-23T05:54:00.476Z,982.9
2016-02-23T05:55:00.479Z,982.95
2016-02-23T05:56:00.498Z,983.02
2016-02-23T05:57:00.484Z,982.97
2016-02-23T05:58:00.487Z,983.01
2016-02-23T05:59:00.490Z,983.13
2016-02-23T06:00:00.492Z,983.11
2016-02-23T06:01:00.481Z,983.08
2016-02-23T06:02:00.498Z,983.11
2016-02-23T06:03:00.500Z,983.12
2016-02-23T06:04:00.488Z,983.14
2016-02-23T06:05:00.491Z,983.15
2016-02-23T06:06:00.494Z,983.15
2016-02-23T06:07:00.496Z,983.14
2016-02-23T06:08:13.233Z,983.05
2016-02-23T06:09:00.486Z,983.12
2016-02-23T06:10:00.505Z,983.15
2016-02-23T06:11:00.491Z,983.1
2016-02-23T06:12:00.510Z,983.13
2016-02-23T06:13:00.497Z,983.17
2016-02-23T06:14:00.515Z,983.19
2016-02-23T06:15:00.502Z,983.23
2016-02-23T06:16:00.505Z,983.36
2016-02-23T06:17:00.492Z,983.32
2016-02-23T06:18:00.496Z,983.19
2016-02-23T06:19:00.482Z,983.08
2016-02-23T06:20:00.501Z,983.24
2016-02-23T06:21:00.503Z,983.32
2016-02-23T06:22:00.490Z,983.2
2016-02-23T06:23:00.492Z,983.22
2016-02-23T06:24:00.479Z,983.26
2016-02-23T06:25:00.482Z,983.39
2016-02-23T06:26:13.219Z,983.42
2016-02-23T06:27:00.488Z,983.35
2016-02-23T06:28:00.490Z,983.38
2016-02-23T06:29:00.493Z,983.4
2016-02-23T06:30:00.480Z,983.38
2016-02-23T06:31:00.483Z,983.29
2016-02-23T06:32:00.486Z,983.29
2016-02-23T06:33:00.472Z,983.29
2016-02-23T06:34:00.475Z,983.29
2016-02-23T06:35:00.478Z,983.34
2016-02-23T06:36:00.481Z,983.47
2016-02-23T06:37:00.484Z,983.39
2016-02-23T06:38:00.470Z,983.29
2016-02-23T06:39:00.472Z,983.33
2016-02-23T06:40:00.491Z,983.36
2016-02-23T06:41:00.478Z,983.4
2016-02-23T06:42:13.200Z,983.46
2016-02-23T06:43:00.468Z,983.31
2016-02-23T06:44:00.471Z,983.4
2016-02-23T06:45:00.474Z,983.41
2016-02-23T06:46:00.476Z,983.35
2016-02-23T06:47:00.463Z,983.3
2016-02-23T06:48:00.466Z,983.37
2016-02-23T06:49:00.468Z,983.37
2016-02-23T06:50:00.456Z,983.35
2016-02-23T06:51:00.474Z,983.38
2016-02-23T06:52:00.461Z,983.39
2016-02-23T06:53:00.464Z,983.4
2016-02-23T06:54:13.201Z,983.41
2016-02-23T06:55:00.484Z,983.44
2016-02-23T06:56:00.457Z,983.44
2016-02-23T06:57:00.459Z,983.43
2016-02-23T06:58:00.461Z,983.33
2016-02-23T06:59:00.449Z,983.34
2016-02-23T07:00:00.451Z,983.39
2016-02-23T07:01:00.453Z,983.45
2016-02-23T07:02:00.441Z,983.42
2016-02-23T07:03:00.444Z,983.49
2016-02-23T07:04:00.447Z,983.52
2016-02-23T07:05:00.450Z,983.6
2016-02-23T07:06:00.452Z,983.6
2016-02-23T07:07:13.173Z,983.5
2016-02-23T07:08:00.441Z,983.59
2016-02-23T07:09:00.445Z,983.56
2016-02-23T07:10:00.431Z,983.52
2016-02-23T07:11:00.433Z,983.52
2016-02-23T07:12:00.436Z,983.5
2016-02-23T07:13:00.424Z,983.6
2016-02-23T07:14:00.427Z,983.64
2016-02-23T07:15:00.429Z,983.55
2016-02-23T07:16:00.432Z,983.45
2016-02-23T07:17:00.419Z,983.51
2016-02-23T07:18:00.421Z,983.57
2016-02-23T07:19:00.424Z,983.61
2016-02-23T07:20:00.427Z,983.59
2016-02-23T07:21:00.414Z,983.65
2016-02-23T07:22:00.418Z,983.66
2016-02-23T07:23:00.420Z,983.55
2016-02-23T07:24:00.422Z,983.49
2016-02-23T07:25:00.425Z,983.54
2016-02-23T07:26:00.412Z,983.58
2016-02-23T07:27:13.164Z,983.56
2016-02-23T07:28:00.401Z,983.55
2016-02-23T07:29:00.420Z,983.53
2016-02-23T07:30:00.407Z,983.5
2016-02-23T07:31:00.410Z,983.57
2016-02-23T07:32:00.413Z,983.62
2016-02-23T07:33:00.400Z,983.62
2016-02-23T07:34:00.402Z,983.55
2016-02-23T07:35:00.406Z,983.52
2016-02-23T07:36:00.408Z,983.52
2016-02-23T07:37:00.395Z,983.57
2016-02-23T07:38:00.397Z,983.6
2016-02-23T07:39:00.400Z,983.6
2016-02-23T07:40:00.403Z,983.57
2016-02-23T07:41:00.406Z,983.61
2016-02-23T07:42:00.392Z,983.61
2016-02-23T07:43:00.395Z,983.6
2016-02-23T07:44:00.383Z,983.57
2016-02-23T07:45:00.385Z,983.56
2016-02-23T07:46:00.387Z,983.6
2016-02-23T07:47:00.390Z,983.63
2016-02-23T07:48:00.394Z,983.61
2016-02-23T07:49:13.115Z,983.6
2016-02-23T07:50:00.383Z,983.55
2016-02-23T07:51:00.385Z,983.56
2016-02-23T07:52:00.373Z,983.59
2016-02-23T07:53:00.376Z,983.64
2016-02-23T07:54:00.378Z,983.61
2016-02-23T07:55:00.381Z,983.56
2016-02-23T07:56:13.102Z,983.59
2016-02-23T07:57:00.371Z,983.58
2016-02-23T07:58:00.373Z,983.58
2016-02-23T07:59:00.376Z,983.61
2016-02-23T08:00:00.379Z,983.6
2016-02-23T08:01:00.365Z,983.58
2016-02-23T08:02:00.368Z,983.58
2016-02-23T08:03:00.371Z,983.66
2016-02-23T08:04:00.358Z,983.67
2016-02-23T08:05:00.360Z,983.72
2016-02-23T08:06:00.363Z,983.75
2016-02-23T08:07:00.366Z,983.74
2016-02-23T08:08:00.353Z,983.69
2016-02-23T08:09:00.356Z,983.65
2016-02-23T08:10:00.358Z,983.88
2016-02-23T08:11:00.361Z,983.98
2016-02-23T08:12:00.348Z,983.9
2016-02-23T08:13:00.350Z,983.85
2016-02-23T08:14:00.353Z,983.8
2016-02-23T08:15:00.355Z,983.69
2016-02-23T08:16:13.077Z,983.76
2016-02-23T08:17:00.346Z,983.8
2016-02-23T08:18:00.349Z,983.9
2016-02-23T08:19:00.352Z,983.94
2016-02-23T08:20:00.338Z,983.93
2016-02-23T08:21:00.341Z,983.92
2016-02-23T08:22:00.360Z,983.84
2016-02-23T08:23:00.331Z,983.87
2016-02-23T08:24:00.334Z,983.87
2016-02-23T08:25:00.337Z,983.85
2016-02-23T08:26:00.323Z,983.89
2016-02-23T08:27:00.326Z,984
2016-02-23T08:28:00.328Z,984.01
2016-02-23T08:29:00.332Z,984.01
2016-02-23T08:30:00.318Z,983.97
2016-02-23T08:31:00.321Z,983.99
2016-02-23T08:32:00.323Z,984.01
2016-02-23T08:33:00.327Z,984.03
2016-02-23T08:34:00.314Z,984
2016-02-23T08:35:00.316Z,984.05
2016-02-23T08:36:00.320Z,984.01
2016-02-23T08:37:00.306Z,984
2016-02-23T08:38:00.309Z,984.02
2016-02-23T08:39:00.311Z,984.02
2016-02-23T08:40:13.048Z,984.08
2016-02-23T08:41:00.301Z,984.12
2016-02-23T08:42:00.304Z,984.16
2016-02-23T08:43:00.306Z,984.19
2016-02-23T08:44:00.294Z,984.17
2016-02-23T08:45:00.297Z,984.21
2016-02-23T08:46:00.299Z,984.24
2016-02-23T08:47:00.302Z,984.29
2016-02-23T08:48:00.305Z,984.26
2016-02-23T08:49:06.557Z,984.27
2016-02-23T08:50:00.294Z,984.27
2016-02-23T08:51:00.281Z,984.25
2016-02-23T08:52:00.284Z,984.23
2016-02-23T08:53:00.287Z,984.28
2016-02-23T08:54:00.290Z,984.24
2016-02-23T08:55:00.276Z,984.21
2016-02-23T08:56:00.279Z,984.18
2016-02-23T08:57:00.282Z,984.22
2016-02-23T08:58:00.268Z,984.22
2016-02-23T08:59:00.287Z,984.22
2016-02-23T09:00:00.274Z,984.24
2016-02-23T09:01:00.266Z,984.24
2016-02-23T09:02:00.269Z,984.22
2016-02-23T09:03:13.006Z,984.28
2016-02-23T09:04:00.275Z,984.28
2016-02-23T09:05:00.266Z,984.29
2016-02-23T09:06:00.269Z,984.28
2016-02-23T09:07:00.256Z,984.27
2016-02-23T09:08:00.259Z,984.27
2016-02-23T09:09:00.261Z,984.31
2016-02-23T09:10:00.249Z,984.38
2016-02-23T09:11:00.252Z,984.37
2016-02-23T09:12:00.255Z,984.38
2016-02-23T09:13:00.257Z,984.35
2016-02-23T09:14:00.244Z,984.37
2016-02-23T09:15:00.247Z,984.41
2016-02-23T09:16:00.249Z,984.35
2016-02-23T09:17:00.252Z,984.37
2016-02-23T09:18:00.255Z,984.39
2016-02-23T09:19:00.239Z,984.42
2016-02-23T09:20:00.241Z,984.47
2016-02-23T09:21:00.229Z,984.44
2016-02-23T09:22:00.232Z,984.44
2016-02-23T09:23:00.234Z,984.52
2016-02-23T09:24:00.221Z,984.53
2016-02-23T09:25:00.224Z,984.53
2016-02-23T09:26:00.227Z,984.49
2016-02-23T09:27:00.229Z,984.5
2016-02-23T09:28:00.216Z,984.51
2016-02-23T09:29:00.213Z,984.49
2016-02-23T09:30:00.219Z,984.48
2016-02-23T09:31:00.193Z,984.5
2016-02-23T09:32:00.168Z,984.51
2016-02-23T09:33:00.158Z,984.45
2016-02-23T09:34:00.152Z,984.46
2016-02-23T09:35:00.134Z,984.46
2016-02-23T09:36:00.132Z,984.47
2016-02-23T09:37:00.129Z,984.49
2016-02-23T09:38:12.846Z,984.46
2016-02-23T09:39:00.112Z,984.52
2016-02-23T09:40:00.113Z,984.55
2016-02-23T09:41:00.114Z,984.53
2016-02-23T09:42:00.114Z,984.54
2016-02-23T09:43:00.116Z,984.6
2016-02-23T09:44:00.101Z,984.54
2016-02-23T09:45:00.103Z,984.6
2016-02-23T09:46:00.090Z,984.69
2016-02-23T09:47:00.092Z,984.63
2016-02-23T09:48:00.094Z,984.62
2016-02-23T09:49:00.096Z,984.59
2016-02-23T09:50:00.084Z,984.63
2016-02-23T09:51:00.086Z,984.61
2016-02-23T09:52:00.088Z,984.61
2016-02-23T09:53:00.091Z,984.62
2016-02-23T09:54:00.093Z,984.64
2016-02-23T09:55:00.080Z,984.62
2016-02-23T09:56:00.083Z,984.65
2016-02-23T09:57:00.101Z,984.63
2016-02-23T09:58:00.072Z,984.66
2016-02-23T09:59:00.075Z,984.68
2016-02-23T10:00:00.077Z,984.65
2016-02-23T10:01:00.065Z,984.68
2016-02-23T10:02:00.068Z,984.71
2016-02-23T10:03:00.071Z,984.7
2016-02-23T10:04:00.073Z,984.71
2016-02-23T10:05:00.076Z,984.71
2016-02-23T10:06:00.063Z,984.68
2016-02-23T10:07:00.065Z,984.66
2016-02-23T10:08:00.068Z,984.66
2016-02-23T10:09:00.071Z,984.69
2016-02-23T10:10:00.058Z,984.7
2016-02-23T10:11:12.798Z,984.74
2016-02-23T10:12:00.064Z,984.77
2016-02-23T10:13:00.050Z,984.78
2016-02-23T10:14:00.053Z,984.71
2016-02-23T10:15:00.056Z,984.74
2016-02-23T10:16:00.043Z,984.72
2016-02-23T10:17:00.045Z,984.72
2016-02-23T10:18:00.048Z,984.71
2016-02-23T10:19:00.051Z,984.7
2016-02-23T10:20:00.053Z,984.72
2016-02-23T10:21:00.041Z,984.74
2016-02-23T10:22:00.043Z,984.71
2016-02-23T10:23:00.047Z,984.71
2016-02-23T10:24:00.049Z,984.77
2016-02-23T10:25:00.036Z,984.8
2016-02-23T10:26:00.038Z,984.77
2016-02-23T10:27:00.041Z,984.79
2016-02-23T10:28:12.780Z,984.78
2016-02-23T10:29:00.030Z,984.8
2016-02-23T10:30:00.033Z,984.79
2016-02-23T10:31:00.036Z,984.82
2016-02-23T10:32:00.038Z,984.8
2016-02-23T10:33:00.041Z,984.82
2016-02-23T10:34:00.029Z,984.82
2016-02-23T10:35:00.032Z,984.82
2016-02-23T10:36:00.018Z,984.8
2016-02-23T10:37:00.021Z,984.87
2016-02-23T10:38:12.762Z,984.87
2016-02-23T10:39:00.027Z,984.89
2016-02-23T10:40:00.014Z,984.89
2016-02-23T10:41:00.017Z,984.89
2016-02-23T10:42:00.020Z,984.91
2016-02-23T10:43:00.022Z,984.97
2016-02-23T10:44:00.009Z,984.94
2016-02-23T10:45:00.011Z,984.97
2016-02-23T10:46:00.014Z,984.96
2016-02-23T10:47:00.017Z,984.97
2016-02-23T10:48:00.004Z,984.98
2016-02-23T10:49:00.006Z,984.97
2016-02-23T10:50:00.009Z,985.02
2016-02-23T10:51:00.028Z,985.05
2016-02-23T10:51:59.999Z,985.08
2016-02-23T10:53:00.002Z,985.06
2016-02-23T10:53:59.989Z,985.11
2016-02-23T10:54:59.991Z,985.1
2016-02-23T10:55:59.994Z,985.15
2016-02-23T10:56:59.997Z,985.17
2016-02-23T10:58:00.000Z,985.14
2016-02-23T10:58:59.987Z,985.15
2016-02-23T11:00:12.726Z,985.13
2016-02-23T11:00:59.976Z,985.16
2016-02-23T11:01:59.995Z,985.14
2016-02-23T11:02:59.982Z,985.16
2016-02-23T11:03:59.984Z,985.15
2016-02-23T11:04:59.971Z,985.19
2016-02-23T11:05:59.974Z,985.22
2016-02-23T11:06:59.977Z,985.21
2016-02-23T11:07:59.980Z,985.23
2016-02-23T11:08:59.967Z,985.19
2016-02-23T11:09:59.970Z,985.24
2016-02-23T11:10:59.957Z,985.22
2016-02-23T11:11:59.960Z,985.2
2016-02-23T11:12:59.962Z,985.24
2016-02-23T11:13:59.965Z,985.22
2016-02-23T11:14:59.951Z,985.3
2016-02-23T11:15:59.954Z,985.26
2016-02-23T11:16:59.956Z,985.3
2016-02-23T11:17:59.944Z,985.32
2016-02-23T11:18:59.947Z,985.34
2016-02-23T11:19:59.950Z,985.33
2016-02-23T11:20:59.936Z,985.36
2016-02-23T11:21:59.939Z,985.33
2016-02-23T11:22:59.942Z,985.33
2016-02-23T11:23:59.928Z,985.29
2016-02-23T11:24:59.931Z,985.33
2016-02-23T11:25:59.934Z,985.31
2016-02-23T11:26:59.937Z,985.3
2016-02-23T11:27:59.924Z,985.34
2016-02-23T11:28:59.927Z,985.36
2016-02-23T11:29:59.930Z,985.39
2016-02-23T11:30:59.916Z,985.4
2016-02-23T11:32:12.655Z,985.41
2016-02-23T11:32:59.907Z,985.35
2016-02-23T11:33:59.910Z,985.37
2016-02-23T11:34:59.912Z,985.38
2016-02-23T11:35:59.899Z,985.33
2016-02-23T11:36:59.901Z,985.44
2016-02-23T11:37:59.905Z,985.42
2016-02-23T11:38:59.907Z,985.48
2016-02-23T11:39:59.894Z,985.51
2016-02-23T11:40:59.896Z,985.52
2016-02-23T11:41:59.884Z,985.49
2016-02-23T11:42:59.886Z,985.51
2016-02-23T11:43:59.889Z,985.51
2016-02-23T11:44:59.893Z,985.58
2016-02-23T11:45:59.879Z,985.5
2016-02-23T11:46:59.882Z,985.5
2016-02-23T11:47:59.868Z,985.52
2016-02-23T11:48:59.871Z,985.51
2016-02-23T11:49:59.873Z,985.55
2016-02-23T11:50:59.861Z,985.6
2016-02-23T11:51:59.863Z,985.6
2016-02-23T11:52:59.934Z,985.59
2016-02-23T11:53:59.871Z,985.64
2016-02-23T11:54:59.874Z,985.63
2016-02-23T11:56:12.626Z,985.63
2016-02-23T11:56:59.982Z,985.58
2016-02-23T11:57:59.845Z,985.59
2016-02-23T11:58:59.832Z,985.57
2016-02-23T11:59:59.850Z,985.6
2016-02-23T12:00:59.837Z,985.59
2016-02-23T12:01:59.840Z,985.59
2016-02-23T12:02:59.827Z,985.55
2016-02-23T12:03:59.829Z,985.59
2016-02-23T12:04:59.817Z,985.57
2016-02-23T12:05:59.825Z,985.6
2016-02-23T12:06:59.809Z,985.59
2016-02-23T12:07:59.827Z,985.59
2016-02-23T12:08:59.798Z,985.6
2016-02-23T12:09:59.800Z,985.56
2016-02-23T12:11:12.538Z,985.58
2016-02-23T12:11:59.790Z,985.57
2016-02-23T12:12:59.793Z,985.58
2016-02-23T12:13:59.796Z,985.56
2016-02-23T12:14:59.782Z,985.57
2016-02-23T12:15:59.785Z,985.58
2016-02-23T12:16:59.773Z,985.61
2016-02-23T12:17:59.775Z,985.64
2016-02-23T12:18:59.779Z,985.6
2016-02-23T12:19:59.766Z,985.59
2016-02-23T12:20:59.768Z,985.63
2016-02-23T12:21:59.771Z,985.64
2016-02-23T12:22:59.757Z,985.68
2016-02-23T12:23:59.760Z,985.73
2016-02-23T12:24:59.762Z,985.71
2016-02-23T12:25:59.751Z,985.71
2016-02-23T12:26:59.754Z,985.68
2016-02-23T12:27:59.740Z,985.69
2016-02-23T12:28:59.743Z,985.69
2016-02-23T12:29:59.745Z,985.72
2016-02-23T12:30:59.732Z,985.73
2016-02-23T12:31:59.735Z,985.77